• Join FlightAware (Why Join?)
  • Login
  • US Flag 
11:41PM EDT


 

Airport Tracker/Info


-or-


 

Live Flight TrackerFlight Track Log ✈ SKW5564 ✈ 27-Oct-2013 ✈ KDEN - KCOS

Flight Track Log - Related Links

Times and Time Zones

All times are in EDT time to prevent confusion due to time zone crossing. See the SKW5564 flight status page for this flight to view local times or setup timezone preferences in your user account.

Time Position Orientation Groundspeed Altitude Reporting Facility
EDT Latitude Longitude Course Direction KTS MPH feet Rate Location/Type
12:14AM 39.8000 -104.6667 159° South 177 204 6,900  Level Denver TRACON
12:15AM 39.7667 -104.6500 159° South 238 274 7,900 1,800 Climbing Denver TRACON
12:16AM 39.6833 -104.6000 155° Southeast 290 334 10,200 1,800 Climbing Denver TRACON
12:17AM 39.6381 -104.5819 163° South 295 339 11,100 1,140 Climbing Denver Center
12:18AM 39.5464 -104.5556 167° South 335 386 12,100 480 Climbing Denver Center
12:19AM 39.4447 -104.5694 186° South 370 426 12,100 -60 Level Denver Center
12:20AM 39.3369 -104.5836 186° South 368 423 12,000 -120 Descending Denver Center
12:20AM 39.3211 -104.5858 186° South 364 419 12,000  Level Denver Center
12:21AM 39.2367 -104.5950 185° South 363 418 12,000  Level Denver Center
12:22AM 39.1386 -104.5783 172° South 362 417 12,000 -300 Level Denver Center
12:23AM 39.0414 -104.5658 174° South 356 410 11,400 -840 Descending Denver Center
12:24AM 38.9369 -104.5653 180° South 372 428 10,400 -1,080 Descending Denver Center
12:24AM 38.9150 -104.5633 176° South 375 432 10,100 -420 Descending Denver Center
12:25AM 38.8347 -104.5631 180° South 360 414 10,000 -60 Descending Denver Center
12:26AM 38.7547 -104.5622 180° South 311 358 10,000 -600 Level Denver Center
12:27AM 38.6928 -104.5767 190° South 231 266 8,900 -1,020 Descending Denver Center
12:28AM 38.6931 -104.6442 270° West 211 243 8,000 -900 Descending Denver Center
12:28AM 38.6922 -104.6572 265° West 182 209 7,900 -420 Descending Denver Center
12:29AM 38.7047 -104.7014 290° West 200 230 7,600 -540 Descending Denver Center
12:30AM 38.7503 -104.7164 346° North 164 189 6,900 -720 Descending Denver Center
12:32AM 38.8000 -104.7000 342° North  Level FlightAware Approximate
12:39AM 38.8058 -104.7008 342° North  Level Estimated